Currituck — AEFR — position and weather

sailwx.info

Track history (hours):
 
Tides and Currents Weather Stations Pressure Air Temp Water Temp Dewpoint Dewpoint Depression Visibility Wind Speed Wind Dir Waves Ship Positions

Currituck

Last reported at 2018-May-25 11:15 UTC. Time now 2018-May-26 04:05 UTC.
Position N 42°05' W 070°39'.

Length 45 m; draft 2 m.

Type: Dredging. MMSI: 369970446.

Date/timePositionNaut miles runAvg speedWind from/ knotsBaromVisibWave heightAir tempDewpointWater temp
2018-May-25 11:15N 42°05' W 070°39'0 1.5
2018-May-25 10:56N 42°04' W 070°38'0 1.1
2018-May-25 10:30N 42°05' W 070°39'0 0.0
2018-May-25 10:00N 42°05' W 070°39'0 0.9
2018-May-25 09:30N 42°04' W 070°39'0 0.8
2018-May-25 08:59N 42°05' W 070°39'0 0.2
2018-May-25 08:30N 42°05' W 070°39'  
2018-May-22 15:47N 41°13' W 072°15'310.5
2018-May-22 15:29N 41°13' W 072°19'5 9.6
2018-May-22 14:59N 41°12' W 072°25'510.4
2018-May-22 14:29N 41°11' W 072°32'510.2
2018-May-22 13:59N 41°11' W 072°39'14 9.6
2018-May-22 12:34N 41°08' W 072°57'1 9.4
2018-May-22 12:29N 41°08' W 072°58'50 5.1
2018-May-22 02:34N 40°45' W 073°57'1 9.5
2018-May-22 02:30N 40°45' W 073°58'4 7.9
2018-May-22 02:00N 40°42' W 074°01'3 5.3
2018-May-22 01:30N 40°41' W 074°04'0 0.3
2018-May-22 01:00N 40°41' W 074°04'3 6.9
2018-May-22 00:30N 40°38' W 074°03'49 7.8
2018-May-21 18:16N 39°49' W 074°03'4 8.4
2018-May-21 17:50N 39°45' W 074°03'3 8.2
2018-May-21 17:29N 39°43' W 074°04'4 8.6
2018-May-21 17:00N 39°39' W 074°07'197 4.1
2018-May-19 16:37N 36°52' W 076°20'1 6.3
2018-May-19 16:23N 36°51' W 076°18'1 1.8
2018-May-19 15:51N 36°50' W 076°18'2 6.8
2018-May-19 15:30N 36°48' W 076°17'2 5.0
2018-May-19 15:00N 36°46' W 076°18'3 3.4
2018-May-19 13:58N 36°43' W 076°15'0 0.0
2018-May-19 07:29N 36°43' W 076°15'  
Track history (hours):
 
Tides and Currents Weather Stations Pressure Air Temp Water Temp Dewpoint Dewpoint Depression Visibility Wind Speed Wind Dir Waves Ship Positions

Currituck

Last reported at 2018-May-25 11:15 UTC. Time now 2018-May-26 04:05 UTC.
Position N 42°05' W 070°39'.

Length 45 m; draft 2 m.

Type: Dredging. MMSI: 369970446.

Date/timePositionNaut miles runAvg speedWind from/ knotsBaromVisibWave heightAir tempDewpointWater temp
2018-May-25 11:15N 42°05' W 070°39'0 1.5
2018-May-25 10:56N 42°04' W 070°38'0 1.1
2018-May-25 10:30N 42°05' W 070°39'0 0.0
2018-May-25 10:00N 42°05' W 070°39'0 0.9
2018-May-25 09:30N 42°04' W 070°39'0 0.8
2018-May-25 08:59N 42°05' W 070°39'0 0.2
2018-May-25 08:30N 42°05' W 070°39'  
2018-May-22 15:47N 41°13' W 072°15'310.5
2018-May-22 15:29N 41°13' W 072°19'5 9.6
2018-May-22 14:59N 41°12' W 072°25'510.4
2018-May-22 14:29N 41°11' W 072°32'510.2
2018-May-22 13:59N 41°11' W 072°39'14 9.6
2018-May-22 12:34N 41°08' W 072°57'1 9.4
2018-May-22 12:29N 41°08' W 072°58'50 5.1
2018-May-22 02:34N 40°45' W 073°57'1 9.5
2018-May-22 02:30N 40°45' W 073°58'4 7.9
2018-May-22 02:00N 40°42' W 074°01'3 5.3
2018-May-22 01:30N 40°41' W 074°04'0 0.3
2018-May-22 01:00N 40°41' W 074°04'3 6.9
2018-May-22 00:30N 40°38' W 074°03'49 7.8
2018-May-21 18:16N 39°49' W 074°03'4 8.4
2018-May-21 17:50N 39°45' W 074°03'3 8.2
2018-May-21 17:29N 39°43' W 074°04'4 8.6
2018-May-21 17:00N 39°39' W 074°07'197 4.1
2018-May-19 16:37N 36°52' W 076°20'1 6.3
2018-May-19 16:23N 36°51' W 076°18'1 1.8
2018-May-19 15:51N 36°50' W 076°18'2 6.8
2018-May-19 15:30N 36°48' W 076°17'2 5.0
2018-May-19 15:00N 36°46' W 076°18'3 3.4
2018-May-19 13:58N 36°43' W 076°15'0 0.0
2018-May-19 07:29N 36°43' W 076°15'  

Dump ship's entire track history